This is the latest recevied weather packets stored in our database for station/object KB0BS-13. If no packets are shown the sender has not sent any weather packets the latest 10 day(s).
| Time | Temp. | Humidity | Pressure | Rain* | Wind** | Luminosity | Snow |
|---|---|---|---|---|---|---|---|
| 1777121156 | 5.56° C | 98% | 1016.9 hPa | 0 mm | - | 60 W/m² | - |
| 1777120855 | 5.56° C | 98% | 1016.7 hPa | 0 mm | - | 70 W/m² | - |
| 1777120550 | 5.56° C | 97% | 1016.8 hPa | 0 mm | - | 69 W/m² | - |
| 1777120245 | 5.56° C | 98% | 1016.8 hPa | 0 mm | - | 62 W/m² | - |
| 1777119941 | 5° C | 98% | 1017 hPa | 0 mm | - | 57 W/m² | - |
| 1777119638 | 5° C | 98% | 1016.8 hPa | 0 mm | - | 53 W/m² | - |
| 1777119333 | 5° C | 98% | 1016.7 hPa | 0 mm | - | 48 W/m² | - |
| 1777119028 | 5° C | 98% | 1016.7 hPa | 0 mm | - | 49 W/m² | - |
| 1777118724 | 5° C | 99% | 1016.3 hPa | 0 mm | - | 51 W/m² | - |
| 1777118420 | 5° C | 99% | 1016.5 hPa | 0 mm | - | 47 W/m² | - |
| 1777118116 | 5° C | 99% | 1016.1 hPa | 0 mm | - | 50 W/m² | - |
| 1777117813 | 5° C | 99% | 1016.1 hPa | 0 mm | - | 39 W/m² | - |
| 1777117511 | 5° C | 99% | 1016.1 hPa | 0 mm | - | 33 W/m² | - |
| 1777117209 | 4.44° C | 99% | 1016.6 hPa | 0 mm | - | 24 W/m² | - |
| 1777116908 | 4.44° C | 99% | 1016.6 hPa | 0 mm | - | 19 W/m² | - |
| 1777116604 | 4.44° C | 99% | 1016.3 hPa | 0 mm | - | 16 W/m² | - |
| 1777116300 | 4.44° C | 99% | 1016 hPa | 0 mm | - | 16 W/m² | - |
| 1777115996 | 4.44° C | 99% | 1016 hPa | 0 mm | - | 14 W/m² | - |
| 1777115696 | 4.44° C | 99% | 1016 hPa | 0 mm | - | 11 W/m² | - |
| 1777115392 | 4.44° C | 99% | 1015.5 hPa | 0 mm | - | 9 W/m² | - |
| 1777115089 | 4.44° C | 99% | 1015.5 hPa | 0 mm | - | 9 W/m² | - |
| 1777114785 | 4.44° C | 99% | 1015.3 hPa | 0 mm | - | 7 W/m² | - |
| 1777114481 | 4.44° C | 99% | 1015.3 hPa | 0 mm | - | 5 W/m² | - |
| 1777114177 | 4.44° C | 99% | 1015.2 hPa | 0 mm | - | 3 W/m² | - |
| 1777113873 | 4.44° C | 99% | 1015.1 hPa | 0 mm | - | 2 W/m² | - |
* Rain latest hour (hover to see other rain measurements)
** Current wind speed in m/s (hover to see current wind gust speed)